createdAt,value
2023-04-08T00:01:22.660Z,11.70
2023-04-08T00:03:49.699Z,11.97
2023-04-08T00:06:16.536Z,10.70
2023-04-08T00:08:43.313Z,11.50
2023-04-08T00:11:10.105Z,12.00
2023-04-08T00:13:36.837Z,10.40
2023-04-08T00:16:03.801Z,10.37
2023-04-08T00:18:30.500Z,11.97
2023-04-08T00:20:57.330Z,11.80
2023-04-08T00:23:24.087Z,12.70
2023-04-08T00:25:51.149Z,11.33
2023-04-08T00:28:17.905Z,12.17
2023-04-08T00:30:44.663Z,12.03
2023-04-08T00:33:11.446Z,11.23
2023-04-08T00:35:38.301Z,12.00
2023-04-08T00:38:08.062Z,12.57
2023-04-08T00:40:37.334Z,11.67
2023-04-08T00:43:06.482Z,11.67
2023-04-08T00:45:35.015Z,12.60
2023-04-08T00:48:03.553Z,11.97
2023-04-08T00:50:30.700Z,12.00
2023-04-08T00:52:57.487Z,11.93
2023-04-08T00:55:24.347Z,12.87
2023-04-08T00:57:51.317Z,11.73
2023-04-08T01:00:18.187Z,13.33
2023-04-08T01:03:22.480Z,11.53
2023-04-08T01:06:32.029Z,11.17
2023-04-08T01:09:00.949Z,12.60
2023-04-08T01:11:31.214Z,12.50
2023-04-08T01:14:00.708Z,10.93
2023-04-08T01:16:28.239Z,12.23
2023-04-08T01:18:56.480Z,11.00
2023-04-08T01:21:24.880Z,11.27
2023-04-08T01:24:13.924Z,9.73
2023-04-08T01:26:41.625Z,9.40
2023-04-08T01:29:11.608Z,10.33
2023-04-08T01:31:42.695Z,9.97
2023-04-08T01:34:11.860Z,8.60
2023-04-08T01:36:40.485Z,8.97
2023-04-08T01:39:08.372Z,11.43
2023-04-08T01:41:36.735Z,9.27
2023-04-08T01:44:06.378Z,9.70
2023-04-08T01:46:34.597Z,9.30
2023-04-08T01:49:02.452Z,8.50
2023-04-08T01:51:32.267Z,9.37
2023-04-08T01:53:59.180Z,9.40
2023-04-08T01:56:32.978Z,9.87
2023-04-08T01:59:02.048Z,10.30
2023-04-08T02:01:32.619Z,9.17
2023-04-08T02:04:03.186Z,8.43
2023-04-08T02:06:33.567Z,10.03
2023-04-08T02:09:01.957Z,8.60
2023-04-08T02:11:29.295Z,9.20
2023-04-08T02:13:56.266Z,8.63
2023-04-08T02:16:36.800Z,8.40
2023-04-08T02:19:20.032Z,7.87
2023-04-08T02:21:55.230Z,9.60
2023-04-08T02:24:22.524Z,8.83
2023-04-08T02:26:52.040Z,9.03
2023-04-08T02:29:19.477Z,8.87
2023-04-08T02:31:47.125Z,9.63
2023-04-08T02:34:16.048Z,7.63
2023-04-08T02:36:46.038Z,7.63
2023-04-08T02:39:12.986Z,8.63
2023-04-08T02:41:39.788Z,8.60
2023-04-08T02:44:06.573Z,10.23
2023-04-08T02:46:33.353Z,8.97
2023-04-08T02:49:00.375Z,7.50
2023-04-08T02:51:27.930Z,7.90
2023-04-08T02:53:55.384Z,7.87
2023-04-08T02:56:22.685Z,7.83
2023-04-08T02:58:52.327Z,7.73
2023-04-08T03:01:19.391Z,7.70
2023-04-08T03:03:46.597Z,8.37
2023-04-08T03:06:13.482Z,7.27
2023-04-08T03:08:40.303Z,9.27
2023-04-08T03:11:07.177Z,7.50
2023-04-08T03:13:34.697Z,7.37
2023-04-08T03:16:01.618Z,7.23
2023-04-08T03:18:29.549Z,7.60
2023-04-08T03:20:56.437Z,7.17
2023-04-08T03:23:23.160Z,8.27
2023-04-08T03:25:51.452Z,8.20
2023-04-08T03:28:18.249Z,8.43
2023-04-08T03:30:45.312Z,7.83
2023-04-08T03:33:12.426Z,7.97
2023-04-08T03:35:39.247Z,8.43
2023-04-08T03:38:06.090Z,7.97
2023-04-08T03:40:32.862Z,8.33
2023-04-08T03:42:59.625Z,8.20
2023-04-08T03:45:26.440Z,8.30
2023-04-08T03:47:53.291Z,9.80
2023-04-08T03:50:20.198Z,8.13
2023-04-08T03:52:46.960Z,8.90
2023-04-08T03:55:13.651Z,8.97
2023-04-08T03:57:41.037Z,8.63
2023-04-08T04:00:08.941Z,8.97
2023-04-08T04:02:36.870Z,8.93
2023-04-08T04:05:04.157Z,10.70
2023-04-08T04:07:31.043Z,10.73
2023-04-08T04:09:57.934Z,11.07
2023-04-08T04:12:24.792Z,10.07
2023-04-08T04:14:51.605Z,11.20
2023-04-08T04:17:18.364Z,11.30
2023-04-08T04:19:45.204Z,11.20
2023-04-08T04:22:11.972Z,10.77
2023-04-08T04:24:38.721Z,12.33
2023-04-08T04:27:05.561Z,13.40
2023-04-08T04:29:32.506Z,12.53
2023-04-08T04:31:59.252Z,12.33
2023-04-08T04:34:26.019Z,12.40
2023-04-08T04:36:52.786Z,12.87
2023-04-08T04:39:19.619Z,13.27
2023-04-08T04:41:47.357Z,13.67
2023-04-08T04:44:14.049Z,13.53
2023-04-08T04:46:41.020Z,13.50
2023-04-08T04:49:07.784Z,13.03
2023-04-08T04:51:34.610Z,13.83
2023-04-08T04:54:01.366Z,14.00
2023-04-08T04:56:28.523Z,14.87
2023-04-08T04:58:55.263Z,15.60
2023-04-08T05:01:22.221Z,15.57
2023-04-08T05:03:50.488Z,15.30
2023-04-08T05:06:17.259Z,13.87
2023-04-08T05:08:44.009Z,15.80
2023-04-08T05:11:11.686Z,13.90
2023-04-08T05:13:38.458Z,13.57
2023-04-08T05:16:05.614Z,14.83
2023-04-08T05:18:32.326Z,14.37
2023-04-08T05:20:59.215Z,14.77
2023-04-08T05:23:26.033Z,15.27
2023-04-08T05:25:52.795Z,14.27
2023-04-08T05:28:19.883Z,13.50
2023-04-08T05:30:52.432Z,12.97
2023-04-08T05:33:19.445Z,10.67
2023-04-08T05:35:46.630Z,11.03
2023-04-08T05:38:13.410Z,11.10
2023-04-08T05:40:40.409Z,9.93
2023-04-08T05:43:07.165Z,9.37
2023-04-08T05:45:33.904Z,9.37
2023-04-08T05:48:02.773Z,9.50
2023-04-08T05:50:29.517Z,8.93
2023-04-08T05:52:56.261Z,9.13
2023-04-08T05:55:23.150Z,9.30
2023-04-08T05:57:49.847Z,9.03
2023-04-08T06:00:16.970Z,9.33
2023-04-08T06:02:43.952Z,8.40
2023-04-08T06:05:11.052Z,9.87
2023-04-08T06:07:37.891Z,9.67
2023-04-08T06:10:05.822Z,9.70
2023-04-08T06:12:37.167Z,8.90
2023-04-08T06:15:04.739Z,9.47
2023-04-08T06:17:31.568Z,8.97
2023-04-08T06:19:58.302Z,8.97
2023-04-08T06:22:25.098Z,9.90
2023-04-08T06:24:52.048Z,8.77
2023-04-08T06:27:18.834Z,9.10
2023-04-08T06:29:45.597Z,8.13
2023-04-08T06:32:12.746Z,8.83
2023-04-08T06:34:40.035Z,8.63
2023-04-08T06:37:07.497Z,8.40
2023-04-08T06:39:34.671Z,9.57
2023-04-08T06:42:01.605Z,9.03
2023-04-08T06:44:28.454Z,8.90
2023-04-08T06:46:56.362Z,8.47
2023-04-08T06:49:23.169Z,9.67
2023-04-08T06:51:50.374Z,8.73
2023-04-08T06:54:17.073Z,9.63
2023-04-08T06:56:43.826Z,9.23
2023-04-08T06:59:10.615Z,9.73
2023-04-08T07:01:37.506Z,8.60
2023-04-08T07:04:04.372Z,8.90
2023-04-08T07:06:31.097Z,9.10
2023-04-08T07:08:57.839Z,9.33
2023-04-08T07:11:24.744Z,8.97
2023-04-08T07:13:52.400Z,10.27
2023-04-08T07:16:19.196Z,9.20
2023-04-08T07:18:47.889Z,8.90
2023-04-08T07:21:14.753Z,8.70
2023-04-08T07:23:41.532Z,8.97
2023-04-08T07:26:08.477Z,8.50
2023-04-08T07:28:35.480Z,9.40
2023-04-08T07:31:15.112Z,9.23
2023-04-08T07:33:43.772Z,9.47
2023-04-08T07:36:15.181Z,8.40
2023-04-08T07:38:42.083Z,9.30
2023-04-08T07:41:08.860Z,8.10
2023-04-08T07:43:37.306Z,9.27
2023-04-08T07:46:07.829Z,9.10
2023-04-08T07:48:35.557Z,9.80
2023-04-08T07:51:11.318Z,10.60
2023-04-08T07:53:39.335Z,9.10
2023-04-08T07:56:18.155Z,8.07
2023-04-08T07:58:46.469Z,8.63
2023-04-08T08:01:22.896Z,8.90
2023-04-08T08:03:52.082Z,7.83
2023-04-08T08:06:19.595Z,8.87
2023-04-08T08:08:46.323Z,8.40
2023-04-08T08:11:13.236Z,8.03
2023-04-08T08:13:41.218Z,7.57
2023-04-08T08:16:12.029Z,7.10
2023-04-08T08:18:41.287Z,7.45
2023-04-08T08:21:09.159Z,6.95
2023-04-08T08:23:37.437Z,6.55
2023-04-08T08:26:09.922Z,6.47
2023-04-08T08:28:39.757Z,6.88
2023-04-08T08:31:07.043Z,6.50
2023-04-08T08:33:34.486Z,6.32
2023-04-08T08:36:01.596Z,6.15
2023-04-08T08:38:28.343Z,6.75
2023-04-08T08:40:57.215Z,5.85
2023-04-08T08:43:27.234Z,8.25
2023-04-08T08:45:55.062Z,7.65
2023-04-08T08:48:22.010Z,6.45
2023-04-08T08:50:48.877Z,6.90
2023-04-08T08:53:16.153Z,5.85
2023-04-08T08:56:13.430Z,6.05
2023-04-08T08:58:30.907Z,6.10
2023-04-08T09:00:57.617Z,5.90
2023-04-08T09:03:29.495Z,5.38
2023-04-08T09:06:04.077Z,6.22
2023-04-08T09:08:37.862Z,5.68
2023-04-08T09:11:12.478Z,5.90
2023-04-08T09:13:39.620Z,5.70
2023-04-08T09:16:12.834Z,5.22
2023-04-08T09:18:43.235Z,5.50
2023-04-08T09:21:11.731Z,5.18
2023-04-08T09:23:48.419Z,5.38
2023-04-08T09:26:24.496Z,5.10
2023-04-08T09:29:14.218Z,5.30
2023-04-08T09:31:42.574Z,4.75
2023-04-08T09:34:12.658Z,4.75
2023-04-08T09:36:39.511Z,5.03
2023-04-08T09:39:07.618Z,5.90
2023-04-08T09:41:36.049Z,4.70
2023-04-08T09:44:11.391Z,5.25
2023-04-08T09:46:50.789Z,4.68
2023-04-08T09:49:40.877Z,4.65
2023-04-08T09:52:24.878Z,4.57
2023-04-08T09:55:12.758Z,5.18
2023-04-08T09:58:27.710Z,5.78
2023-04-08T10:00:55.630Z,5.03
2023-04-08T10:03:36.078Z,5.93
2023-04-08T10:06:04.480Z,5.90
2023-04-08T10:08:32.936Z,5.50
2023-04-08T10:11:00.004Z,5.65
2023-04-08T10:13:28.806Z,6.22
2023-04-08T10:16:22.175Z,5.57
2023-04-08T10:18:53.835Z,5.97
2023-04-08T10:21:47.926Z,5.93
2023-04-08T10:24:14.730Z,5.72
2023-04-08T10:26:45.162Z,6.47
2023-04-08T10:29:17.927Z,5.65
2023-04-08T10:31:50.670Z,5.90
2023-04-08T10:34:22.726Z,5.80
2023-04-08T10:36:50.042Z,6.32
2023-04-08T10:39:17.364Z,5.57
2023-04-08T10:41:47.399Z,5.80
2023-04-08T10:44:24.080Z,6.25
2023-04-08T10:46:53.575Z,5.90
2023-04-08T10:49:31.973Z,5.93
2023-04-08T10:51:58.923Z,5.50
2023-04-08T10:54:27.244Z,5.90
2023-04-08T10:56:54.651Z,6.07
2023-04-08T10:59:32.351Z,5.22
2023-04-08T11:02:02.524Z,6.20
2023-04-08T11:04:29.946Z,5.88
2023-04-08T11:07:00.260Z,5.25
2023-04-08T11:09:27.461Z,5.45
2023-04-08T11:11:54.834Z,4.85
2023-04-08T11:14:23.642Z,4.95
2023-04-08T11:16:51.787Z,5.38
2023-04-08T11:19:20.554Z,4.90
2023-04-08T11:21:48.156Z,5.75
2023-04-08T11:24:16.858Z,4.93
2023-04-08T11:26:43.964Z,5.35
2023-04-08T11:29:17.615Z,5.53
2023-04-08T11:31:44.733Z,6.00
2023-04-08T11:34:11.664Z,5.10
2023-04-08T11:36:42.048Z,6.63
2023-04-08T11:39:12.209Z,6.05
2023-04-08T11:41:40.557Z,5.55
2023-04-08T11:44:08.455Z,5.25
2023-04-08T11:46:35.782Z,5.30
2023-04-08T11:49:09.981Z,6.07
2023-04-08T11:51:57.776Z,5.88
2023-04-08T11:54:33.587Z,5.57
2023-04-08T11:57:01.416Z,5.32
2023-04-08T11:59:29.620Z,5.07
2023-04-08T12:01:57.600Z,4.72
2023-04-08T12:04:24.705Z,5.03
2023-04-08T12:06:52.339Z,5.65
2023-04-08T12:09:22.155Z,5.22
2023-04-08T12:11:48.979Z,5.90
2023-04-08T12:14:15.986Z,5.45
2023-04-08T12:16:42.844Z,5.18
2023-04-08T12:19:09.748Z,5.60
2023-04-08T12:21:36.678Z,5.55
2023-04-08T12:24:05.006Z,4.65
2023-04-08T12:26:31.785Z,5.00
2023-04-08T12:28:58.549Z,5.22
2023-04-08T12:31:30.014Z,5.00
2023-04-08T12:33:56.939Z,5.30
2023-04-08T12:36:23.788Z,5.43
2023-04-08T12:38:52.045Z,5.97
2023-04-08T12:41:19.058Z,5.60
2023-04-08T12:43:45.819Z,5.20
2023-04-08T12:46:13.272Z,5.97
2023-04-08T12:48:40.837Z,5.72
2023-04-08T12:51:10.255Z,4.78
2023-04-08T12:53:37.200Z,6.07
2023-04-08T12:56:05.431Z,4.90
2023-04-08T12:58:32.209Z,5.55
2023-04-08T13:01:00.253Z,5.22
2023-04-08T13:03:30.294Z,5.63
2023-04-08T13:05:59.133Z,5.32
2023-04-08T13:08:26.088Z,5.18
2023-04-08T13:10:53.092Z,6.35
2023-04-08T13:13:19.942Z,5.43
2023-04-08T13:15:47.465Z,5.85
2023-04-08T13:18:14.253Z,5.05
2023-04-08T13:20:41.020Z,5.22
2023-04-08T13:23:07.897Z,6.13
2023-04-08T13:25:34.730Z,6.30
2023-04-08T13:28:01.473Z,7.05
2023-04-08T13:30:28.229Z,6.32
2023-04-08T13:32:55.210Z,6.10
2023-04-08T13:35:24.964Z,5.57
2023-04-08T13:37:53.225Z,5.72
2023-04-08T13:40:20.048Z,5.78
2023-04-08T13:42:47.851Z,5.88
2023-04-08T13:45:14.810Z,5.70
2023-04-08T13:47:41.625Z,6.10
2023-04-08T13:50:11.650Z,6.18
2023-04-08T13:52:38.457Z,6.38
2023-04-08T13:55:05.966Z,5.63
2023-04-08T13:57:32.847Z,6.05
2023-04-08T13:59:59.650Z,6.07
2023-04-08T14:02:26.965Z,5.82
2023-04-08T14:04:53.962Z,5.72
2023-04-08T14:07:20.789Z,5.15
2023-04-08T14:09:47.545Z,5.53
2023-04-08T14:12:14.225Z,5.22
2023-04-08T14:14:41.202Z,5.68
2023-04-08T14:17:08.030Z,4.97
2023-04-08T14:19:35.311Z,4.57
2023-04-08T14:22:02.065Z,4.22
2023-04-08T14:24:28.763Z,4.65
2023-04-08T14:26:55.586Z,5.32
2023-04-08T14:29:22.533Z,4.63
2023-04-08T14:31:49.319Z,5.35
2023-04-08T14:34:16.190Z,5.47
2023-04-08T14:36:42.979Z,6.05
2023-04-08T14:39:09.737Z,6.05
2023-04-08T14:41:38.505Z,5.82
2023-04-08T14:44:05.597Z,6.40
2023-04-08T14:46:32.425Z,6.05
2023-04-08T14:48:59.158Z,6.60
2023-04-08T14:51:25.855Z,6.25
2023-04-08T14:53:52.668Z,6.10
2023-04-08T14:56:22.117Z,5.93
2023-04-08T14:58:49.071Z,6.43
2023-04-08T15:01:16.006Z,6.03
2023-04-08T15:03:42.791Z,6.47
2023-04-08T15:06:09.573Z,6.63
2023-04-08T15:08:36.784Z,9.05
2023-04-08T15:11:03.617Z,7.30
2023-04-08T15:13:30.356Z,6.18
2023-04-08T15:15:57.165Z,6.63
2023-04-08T15:18:24.036Z,5.10
2023-04-08T15:20:50.811Z,6.63
2023-04-08T15:23:17.661Z,6.22
2023-04-08T15:25:44.380Z,6.00
2023-04-08T15:28:11.193Z,5.80
2023-04-08T15:30:38.021Z,5.72
2023-04-08T15:33:05.174Z,6.25
2023-04-08T15:35:32.783Z,6.22
2023-04-08T15:38:00.488Z,6.45
2023-04-08T15:40:27.382Z,5.97
2023-04-08T15:42:54.101Z,6.50
2023-04-08T15:45:22.124Z,6.22
2023-04-08T15:47:49.070Z,6.80
2023-04-08T15:50:17.175Z,6.68
2023-04-08T15:52:44.607Z,6.60
2023-04-08T15:55:11.785Z,6.47
2023-04-08T15:57:38.773Z,6.03
2023-04-08T16:00:12.106Z,6.35
2023-04-08T16:02:39.634Z,6.72
2023-04-08T16:05:07.312Z,6.57
2023-04-08T16:07:34.061Z,6.90
2023-04-08T16:10:00.917Z,6.38
2023-04-08T16:12:27.619Z,6.65
2023-04-08T16:14:54.765Z,7.30
2023-04-08T16:17:21.983Z,7.57
2023-04-08T16:19:54.282Z,7.88
2023-04-08T16:22:21.161Z,7.45
2023-04-08T16:24:47.966Z,6.57
2023-04-08T16:27:14.775Z,7.00
2023-04-08T16:29:42.121Z,6.97
2023-04-08T16:32:09.017Z,6.90
2023-04-08T16:34:36.152Z,5.82
2023-04-08T16:37:03.099Z,6.10
2023-04-08T16:39:36.900Z,6.53
2023-04-08T16:42:04.019Z,6.97
2023-04-08T16:44:32.113Z,6.47
2023-04-08T16:47:00.869Z,6.45
2023-04-08T16:49:27.674Z,7.35
2023-04-08T16:51:54.429Z,6.57
2023-04-08T16:54:21.162Z,7.22
2023-04-08T16:56:47.896Z,7.18
2023-04-08T16:59:14.668Z,7.63
2023-04-08T17:01:41.468Z,7.93
2023-04-08T17:04:08.281Z,9.48
2023-04-08T17:06:36.147Z,7.55
2023-04-08T17:09:04.090Z,8.60
2023-04-08T17:11:31.241Z,8.50
2023-04-08T17:13:58.617Z,9.18
2023-04-08T17:16:25.513Z,9.35
2023-04-08T17:18:52.539Z,9.40
2023-04-08T17:21:23.318Z,9.25
2023-04-08T17:23:52.535Z,9.82
2023-04-08T17:26:20.187Z,8.98
2023-04-08T17:28:47.126Z,9.90
2023-04-08T17:31:14.314Z,9.05
2023-04-08T17:33:41.563Z,9.25
2023-04-08T17:36:08.414Z,8.93
2023-04-08T17:38:39.549Z,9.07
2023-04-08T17:41:08.133Z,8.90
2023-04-08T17:43:35.254Z,8.30
2023-04-08T17:46:02.091Z,8.73
2023-04-08T17:48:30.729Z,9.00
2023-04-08T17:51:06.618Z,8.00
2023-04-08T17:53:35.093Z,8.50
2023-04-08T17:56:01.840Z,8.10
2023-04-08T17:58:28.733Z,8.32
2023-04-08T18:00:57.959Z,7.95
2023-04-08T18:03:24.785Z,7.63
2023-04-08T18:05:51.688Z,8.18
2023-04-08T18:08:18.956Z,7.70
2023-04-08T18:10:46.868Z,8.80
2023-04-08T18:13:13.868Z,9.05
2023-04-08T18:15:40.823Z,8.98
2023-04-08T18:18:07.564Z,9.63
2023-04-08T18:20:37.790Z,10.65
2023-04-08T18:23:04.872Z,9.70
2023-04-08T18:25:32.382Z,8.68
2023-04-08T18:27:59.518Z,9.73
2023-04-08T18:30:26.496Z,10.50
2023-04-08T18:32:53.381Z,9.70
2023-04-08T18:35:20.301Z,9.65
2023-04-08T18:37:47.033Z,10.65
2023-04-08T18:40:13.897Z,9.50
2023-04-08T18:42:40.710Z,10.50
2023-04-08T18:45:07.964Z,9.45
2023-04-08T18:47:34.853Z,10.13
2023-04-08T18:50:01.708Z,9.50
2023-04-08T18:52:29.172Z,9.75
2023-04-08T18:54:56.362Z,9.00
2023-04-08T18:57:23.129Z,9.68
2023-04-08T18:59:49.858Z,10.18
2023-04-08T19:02:16.733Z,8.43
2023-04-08T19:04:43.778Z,10.75
2023-04-08T19:07:11.897Z,9.65
2023-04-08T19:09:40.326Z,9.57
2023-04-08T19:12:09.671Z,10.18
2023-04-08T19:14:37.449Z,10.50
2023-04-08T19:17:04.187Z,10.50
2023-04-08T19:19:31.522Z,11.70
2023-04-08T19:21:58.377Z,11.40
2023-04-08T19:24:25.338Z,11.65
2023-04-08T19:26:53.110Z,10.10
2023-04-08T19:29:22.885Z,10.93
2023-04-08T19:31:49.709Z,10.85
2023-04-08T19:34:22.162Z,10.35
2023-04-08T19:36:49.020Z,10.57
2023-04-08T19:39:16.009Z,9.23
2023-04-08T19:41:42.809Z,10.73
2023-04-08T19:44:09.751Z,9.60
2023-04-08T19:46:37.267Z,9.90
2023-04-08T19:49:04.817Z,10.25
2023-04-08T19:51:32.799Z,11.30
2023-04-08T19:54:02.426Z,11.60
2023-04-08T19:56:33.870Z,11.32
2023-04-08T19:59:01.920Z,12.20
2023-04-08T20:01:29.289Z,11.52
2023-04-08T20:03:56.201Z,12.02
2023-04-08T20:06:23.231Z,11.35
2023-04-08T20:08:54.921Z,11.18
2023-04-08T20:11:21.826Z,10.60
2023-04-08T20:13:49.890Z,10.98
2023-04-08T20:16:17.014Z,10.82
2023-04-08T20:18:43.980Z,11.30
2023-04-08T20:21:13.847Z,10.85
2023-04-08T20:23:44.665Z,10.57
2023-04-08T20:26:13.374Z,10.32
2023-04-08T20:28:42.718Z,11.38
2023-04-08T20:31:09.542Z,10.95
2023-04-08T20:33:43.385Z,11.35
2023-04-08T20:36:14.395Z,10.35
2023-04-08T20:38:42.375Z,11.65
2023-04-08T20:41:09.126Z,12.00
2023-04-08T20:43:35.899Z,12.15
2023-04-08T20:46:02.611Z,11.00
2023-04-08T20:48:29.437Z,12.35
2023-04-08T20:50:57.776Z,14.43
2023-04-08T20:53:26.223Z,16.35
2023-04-08T20:55:53.000Z,11.55
2023-04-08T20:58:19.744Z,11.70
2023-04-08T21:00:47.605Z,11.23
2023-04-08T21:03:17.153Z,11.48
2023-04-08T21:05:44.511Z,10.82
2023-04-08T21:08:11.336Z,11.05
2023-04-08T21:10:40.602Z,11.23
2023-04-08T21:13:07.453Z,12.10
2023-04-08T21:15:34.165Z,10.82
2023-04-08T21:18:00.931Z,10.73
2023-04-08T21:20:27.797Z,10.63
2023-04-08T21:22:54.510Z,10.70
2023-04-08T21:25:21.259Z,9.93
2023-04-08T21:27:49.151Z,9.48
2023-04-08T21:30:17.768Z,10.82
2023-04-08T21:32:44.862Z,10.98
2023-04-08T21:35:11.614Z,11.18
2023-04-08T21:37:38.375Z,10.70
2023-04-08T21:40:08.021Z,10.52
2023-04-08T21:42:34.852Z,12.10
2023-04-08T21:45:01.755Z,11.82
2023-04-08T21:47:28.690Z,12.30
2023-04-08T21:49:56.269Z,11.75
2023-04-08T21:52:23.194Z,11.30
2023-04-08T21:54:51.413Z,11.32
2023-04-08T21:57:18.797Z,10.50
2023-04-08T21:59:45.833Z,11.60
2023-04-08T22:02:12.816Z,10.63
2023-04-08T22:04:39.924Z,11.15
2023-04-08T22:07:06.768Z,11.13
2023-04-08T22:09:33.781Z,10.60
2023-04-08T22:12:02.030Z,10.73
2023-04-08T22:14:28.854Z,10.77
2023-04-08T22:16:55.822Z,11.55
2023-04-08T22:19:22.868Z,11.82
2023-04-08T22:21:53.694Z,11.20
2023-04-08T22:24:21.157Z,11.02
2023-04-08T22:26:48.014Z,10.98
2023-04-08T22:29:14.766Z,10.68
2023-04-08T22:31:41.539Z,10.18
2023-04-08T22:34:08.414Z,11.05
2023-04-08T22:36:35.321Z,10.82
2023-04-08T22:39:02.058Z,11.30
2023-04-08T22:41:28.773Z,10.80
2023-04-08T22:43:55.587Z,11.48
2023-04-08T22:46:22.370Z,10.10
2023-04-08T22:48:49.548Z,10.00
2023-04-08T22:51:16.871Z,10.50
2023-04-08T22:53:43.708Z,10.85
2023-04-08T22:56:10.701Z,10.30
2023-04-08T22:58:37.506Z,10.47
2023-04-08T23:01:12.682Z,11.55
2023-04-08T23:03:39.591Z,10.38
2023-04-08T23:06:06.325Z,10.68
2023-04-08T23:08:33.106Z,10.00
2023-04-08T23:10:59.893Z,10.10
2023-04-08T23:13:28.371Z,12.07
2023-04-08T23:15:55.237Z,10.50
2023-04-08T23:18:22.227Z,11.85
2023-04-08T23:20:54.315Z,10.97
2023-04-08T23:23:24.165Z,12.38
2023-04-08T23:25:54.958Z,11.80
2023-04-08T23:28:22.563Z,11.82
2023-04-08T23:30:49.634Z,11.77
2023-04-08T23:33:16.434Z,10.85
2023-04-08T23:35:43.285Z,11.97
2023-04-08T23:38:10.193Z,11.25
2023-04-08T23:40:37.106Z,11.70
2023-04-08T23:43:04.019Z,11.38
2023-04-08T23:45:30.884Z,12.95
2023-04-08T23:47:57.716Z,12.45
2023-04-08T23:50:24.447Z,13.35
2023-04-08T23:52:52.421Z,13.43
2023-04-08T23:55:21.791Z,13.50
2023-04-08T23:57:50.581Z,13.18
